Time;durP1;ratioP1;P1;durP2;ratioP2;P2;SDS_P1;SDS_P2;PMS_P1;PMS_P2;Temp;Humidity;BMP_temperature;BMP_pressure;BME280_temperature;BME280_humidity;BME280_pressure;Samples;Min_cycle;Max_cycle;Signal;HPM_P1;HPM_P2
2023/07/13 00:01:46;;;;;;;0.50;0.50;;;19.60;99.90;;;;;;5133437;28;20445;-80
2023/07/13 00:04:15;;;;;;;0.60;0.60;;;19.60;99.90;;;;;;5135992;27;20481;-80
2023/07/13 00:06:44;;;;;;;0.70;0.50;;;19.50;99.90;;;;;;5137159;27;20863;-80
2023/07/13 00:09:12;;;;;;;0.50;0.50;;;19.50;99.90;;;;;;5137226;27;20451;-81
2023/07/13 00:11:39;;;;;;;1.00;0.80;;;19.40;99.90;;;;;;5137357;27;20506;-81
2023/07/13 00:14:05;;;;;;;0.50;0.50;;;19.40;99.90;;;;;;5137282;27;20437;-81
2023/07/13 00:16:33;;;;;;;0.60;0.50;;;19.40;99.90;;;;;;5137280;27;20446;-80
2023/07/13 00:19:01;;;;;;;0.60;0.50;;;19.30;99.90;;;;;;5137139;27;20445;-80
2023/07/13 00:21:29;;;;;;;1.83;0.97;;;19.30;99.90;;;;;;5137220;27;20503;-80
2023/07/13 00:23:56;;;;;;;0.70;0.60;;;19.30;99.90;;;;;;5136849;27;20433;-80
2023/07/13 00:26:23;;;;;;;0.60;0.50;;;19.20;99.90;;;;;;5137098;27;20810;-80
2023/07/13 00:28:49;;;;;;;0.50;0.50;;;19.20;99.90;;;;;;5136976;27;20450;-80
2023/07/13 00:31:16;;;;;;;0.77;0.77;;;19.20;99.90;;;;;;5136596;27;20486;-80
2023/07/13 00:33:43;;;;;;;1.60;0.50;;;19.20;99.90;;;;;;5137055;27;20477;-80
2023/07/13 00:36:11;;;;;;;1.07;0.60;;;19.20;99.90;;;;;;5136973;27;20430;-80
2023/07/13 00:38:39;;;;;;;0.87;0.60;;;19.10;99.90;;;;;;5136848;27;20450;-80
2023/07/13 00:41:06;;;;;;;0.60;0.60;;;19.00;99.90;;;;;;5136749;27;20466;-80
2023/07/13 00:43:32;;;;;;;1.37;0.70;;;19.00;99.90;;;;;;5136770;27;20449;-80
2023/07/13 00:46:24;;;;;;;0.50;0.50;;;18.90;99.90;;;;;;5136713;27;20434;-80
2023/07/13 00:48:52;;;;;;;0.50;0.50;;;19.00;99.90;;;;;;5136875;27;20515;-80
2023/07/13 00:51:24;;;;;;;2.13;0.60;;;18.90;99.90;;;;;;5136532;27;20493;-80
2023/07/13 00:53:55;;;;;;;0.53;0.53;;;18.90;99.90;;;;;;5136625;27;20434;-80
2023/07/13 00:56:21;;;;;;;0.50;0.50;;;18.90;99.90;;;;;;5136217;27;20485;-80
2023/07/13 00:58:49;;;;;;;2.10;0.70;;;18.80;99.90;;;;;;5136412;27;20448;-80
2023/07/13 01:01:16;;;;;;;0.57;0.57;;;18.80;99.90;;;;;;5136374;27;20469;-80
2023/07/13 01:03:43;;;;;;;1.47;0.70;;;18.80;99.90;;;;;;5136344;27;20451;-80
2023/07/13 01:06:10;;;;;;;0.40;0.40;;;18.80;99.90;;;;;;5136320;27;20453;-80
2023/07/13 01:08:36;;;;;;;0.50;0.50;;;18.80;99.90;;;;;;5136320;27;20446;-80
2023/07/13 01:11:04;;;;;;;0.40;0.40;;;18.80;99.90;;;;;;5136101;27;20478;-80
2023/07/13 01:13:31;;;;;;;1.10;0.50;;;18.90;99.90;;;;;;5136136;27;20446;-80
2023/07/13 01:16:03;;;;;;;1.70;0.60;;;18.90;99.90;;;;;;5135861;27;20446;-80
2023/07/13 01:18:30;;;;;;;0.83;0.60;;;18.90;99.90;;;;;;5136101;27;20441;-81
2023/07/13 01:21:00;;;;;;;1.10;0.60;;;19.00;99.90;;;;;;5135912;27;20458;-80
2023/07/13 01:23:28;;;;;;;1.10;0.70;;;19.00;99.90;;;;;;5135989;27;20446;-80
2023/07/13 01:25:55;;;;;;;2.83;0.57;;;19.00;99.90;;;;;;5135576;27;20972;-80
2023/07/13 01:28:26;;;;;;;1.00;0.60;;;19.00;99.90;;;;;;5135872;27;20445;-80
2023/07/13 01:30:54;;;;;;;0.80;0.70;;;19.00;99.90;;;;;;5135775;27;20534;-80
2023/07/13 01:33:21;;;;;;;1.50;0.60;;;19.00;99.90;;;;;;5135748;27;20442;-80
2023/07/13 01:35:48;;;;;;;1.80;0.70;;;18.90;99.90;;;;;;5136015;27;20442;-80
2023/07/13 01:38:19;;;;;;;0.60;0.50;;;18.90;99.90;;;;;;5135676;27;20499;-80
2023/07/13 01:40:46;;;;;;;0.60;0.60;;;18.80;99.90;;;;;;5135251;27;20981;-80
2023/07/13 01:43:13;;;;;;;0.50;0.50;;;18.80;99.90;;;;;;5135590;27;20805;-81
2023/07/13 01:45:40;;;;;;;0.90;0.57;;;18.70;99.90;;;;;;5135578;27;20771;-81
2023/07/13 01:48:07;;;;;;;2.83;0.60;;;18.70;99.90;;;;;;5135439;27;20521;-81
2023/07/13 01:50:34;;;;;;;0.70;0.60;;;18.60;99.90;;;;;;5135323;27;20572;-81
2023/07/13 01:53:01;;;;;;;0.50;0.50;;;18.60;99.90;;;;;;5135354;27;20442;-80
2023/07/13 01:55:30;;;;;;;2.20;0.80;;;18.50;99.90;;;;;;5134978;27;20478;-80
2023/07/13 01:57:57;;;;;;;2.30;0.60;;;18.50;99.90;;;;;;5135281;27;20457;-80
2023/07/13 02:00:24;;;;;;;0.60;0.60;;;18.40;99.90;;;;;;5135126;27;20473;-80
2023/07/13 02:02:51;;;;;;;0.70;0.70;;;18.40;99.90;;;;;;5135453;27;20450;-82
2023/07/13 02:05:18;;;;;;;0.53;0.50;;;18.40;99.90;;;;;;5135165;27;20797;-82
2023/07/13 02:07:45;;;;;;;0.77;0.60;;;18.40;99.90;;;;;;5135116;27;20442;-82
2023/07/13 02:10:13;;;;;;;2.30;0.70;;;18.30;99.90;;;;;;5134866;27;20474;-82
2023/07/13 02:12:42;;;;;;;1.57;0.50;;;18.30;99.90;;;;;;5135039;27;20457;-80
2023/07/13 02:15:10;;;;;;;0.50;0.50;;;18.30;99.90;;;;;;5134946;27;20443;-80
2023/07/13 02:17:37;;;;;;;0.80;0.80;;;18.20;99.90;;;;;;5134588;27;20941;-80
2023/07/13 02:20:05;;;;;;;2.73;0.70;;;18.20;99.90;;;;;;5134881;27;20818;-80
2023/07/13 02:22:32;;;;;;;0.70;0.50;;;18.20;99.90;;;;;;5134822;27;20996;-80
2023/07/13 02:24:59;;;;;;;0.57;0.57;;;18.10;99.90;;;;;;5134842;27;20446;-80
2023/07/13 02:27:26;;;;;;;0.70;0.70;;;18.10;99.90;;;;;;5134288;27;20442;-81
2023/07/13 02:29:54;;;;;;;1.00;0.60;;;18.10;99.90;;;;;;5134618;27;20478;-81
2023/07/13 02:32:20;;;;;;;3.17;0.80;;;18.10;99.90;;;;;;5134672;27;20453;-81
2023/07/13 02:34:47;;;;;;;0.43;0.43;;;18.00;99.90;;;;;;5134687;27;20486;-81
2023/07/13 02:37:14;;;;;;;0.77;0.70;;;18.00;99.90;;;;;;5134640;27;20453;-81
2023/07/13 02:39:41;;;;;;;2.63;0.80;;;18.00;99.90;;;;;;5134733;27;20477;-81
2023/07/13 02:42:08;;;;;;;1.43;0.60;;;17.90;99.90;;;;;;5134243;27;20937;-81
2023/07/13 02:44:34;;;;;;;0.60;0.60;;;17.90;99.90;;;;;;5134240;27;20953;-80
2023/07/13 02:47:02;;;;;;;1.17;0.67;;;17.90;99.90;;;;;;5134521;27;20429;-80
2023/07/13 02:49:29;;;;;;;0.70;0.70;;;17.90;99.90;;;;;;5134576;27;20470;-80
2023/07/13 02:51:56;;;;;;;3.30;0.70;;;17.80;99.90;;;;;;5134347;27;20969;-80
2023/07/13 02:54:23;;;;;;;0.60;0.60;;;17.90;99.90;;;;;;5134557;27;20446;-80
2023/07/13 02:56:50;;;;;;;1.70;0.67;;;17.80;99.90;;;;;;5134181;27;20477;-80
2023/07/13 02:59:16;;;;;;;0.70;0.57;;;17.80;99.90;;;;;;5134266;28;20466;-80
2023/07/13 03:01:43;;;;;;;0.67;0.67;;;17.80;99.90;;;;;;5134362;28;20449;-80
2023/07/13 03:04:12;;;;;;;0.80;0.50;;;17.70;99.90;;;;;;5134139;28;20430;-80
2023/07/13 03:06:38;;;;;;;0.50;0.50;;;17.80;99.90;;;;;;5134302;28;20507;-80
2023/07/13 03:09:05;;;;;;;0.53;0.53;;;17.80;99.90;;;;;;5133876;28;20956;-80
2023/07/13 03:11:32;;;;;;;2.63;0.60;;;17.80;99.90;;;;;;5134437;28;20478;-80
2023/07/13 03:13:59;;;;;;;0.70;0.70;;;17.80;99.90;;;;;;5134217;28;20450;-80
2023/07/13 03:16:26;;;;;;;0.70;0.60;;;17.80;99.90;;;;;;5134207;28;20442;-80
2023/07/13 03:18:52;;;;;;;0.70;0.70;;;17.80;99.90;;;;;;5134417;28;20453;-80
2023/07/13 03:21:20;;;;;;;0.60;0.60;;;17.80;99.90;;;;;;5134166;28;20444;-80
2023/07/13 03:23:48;;;;;;;0.70;0.70;;;17.70;99.90;;;;;;5134137;28;20453;-80
2023/07/13 03:26:18;;;;;;;1.03;0.93;;;17.70;99.90;;;;;;5134096;28;20454;-80
2023/07/13 03:28:45;;;;;;;1.23;0.73;;;17.80;99.90;;;;;;5133736;28;20814;-80
2023/07/13 03:31:15;;;;;;;0.80;0.60;;;17.80;99.90;;;;;;5134081;28;20477;-80
2023/07/13 03:33:41;;;;;;;0.73;0.60;;;17.80;99.90;;;;;;5133916;28;20451;-80
2023/07/13 03:36:14;;;;;;;0.67;0.67;;;17.70;99.90;;;;;;5133989;28;20442;-80
2023/07/13 03:38:42;;;;;;;0.50;0.50;;;17.70;99.90;;;;;;5135558;27;20431;-80
2023/07/13 03:41:08;;;;;;;0.60;0.53;;;17.70;99.90;;;;;;5137890;27;20818;-80
2023/07/13 03:43:35;;;;;;;0.70;0.70;;;17.80;99.90;;;;;;5137918;27;20450;-80
2023/07/13 03:46:02;;;;;;;0.60;0.60;;;17.80;99.90;;;;;;5137655;27;20488;-80
2023/07/13 03:48:28;;;;;;;1.67;0.80;;;17.80;99.90;;;;;;5137600;27;20441;-80
2023/07/13 03:50:55;;;;;;;0.80;0.63;;;17.80;99.90;;;;;;5137837;27;20481;-80
2023/07/13 03:53:22;;;;;;;0.90;0.70;;;17.80;99.90;;;;;;5137439;27;20449;-80
2023/07/13 03:55:50;;;;;;;0.70;0.50;;;17.80;99.90;;;;;;5137488;27;20473;-80
2023/07/13 03:58:30;;;;;;;3.80;0.73;;;17.80;99.90;;;;;;5137435;27;20493;-80
2023/07/13 04:00:57;;;;;;;0.70;0.70;;;17.80;99.90;;;;;;5137605;27;20462;-80
2023/07/13 04:03:24;;;;;;;0.83;0.83;;;17.80;99.90;;;;;;5137525;27;20446;-80
2023/07/13 04:05:51;;;;;;;0.50;0.50;;;17.90;99.90;;;;;;5137491;27;20441;-80
2023/07/13 04:08:17;;;;;;;0.80;0.80;;;17.80;99.90;;;;;;5137490;27;20534;-80
2023/07/13 04:10:44;;;;;;;1.27;0.70;;;17.90;99.90;;;;;;5137229;27;20489;-80
2023/07/13 04:13:12;;;;;;;0.70;0.60;;;17.90;99.90;;;;;;5137421;27;20457;-80
2023/07/13 04:15:40;;;;;;;0.70;0.60;;;17.90;99.90;;;;;;5137068;27;20985;-80
2023/07/13 04:18:07;;;;;;;0.70;0.70;;;18.00;99.90;;;;;;5137293;27;20589;-80
2023/07/13 04:20:33;;;;;;;0.53;0.53;;;18.00;99.90;;;;;;5137178;27;20466;-80
2023/07/13 04:23:00;;;;;;;0.50;0.50;;;18.00;99.90;;;;;;5137186;27;20453;-80
2023/07/13 04:25:27;;;;;;;0.70;0.70;;;18.00;99.90;;;;;;5136806;27;20449;-80
2023/07/13 04:27:54;;;;;;;0.80;0.50;;;18.00;99.90;;;;;;5136720;27;20821;-80
2023/07/13 04:30:23;;;;;;;0.60;0.60;;;17.90;99.90;;;;;;5136905;27;20477;-80
2023/07/13 04:32:52;;;;;;;2.40;0.60;;;17.90;99.90;;;;;;5137271;27;20813;-80
2023/07/13 04:35:20;;;;;;;1.27;0.77;;;17.90;99.90;;;;;;5137007;27;20490;-80
2023/07/13 04:37:47;;;;;;;1.27;0.70;;;17.80;99.90;;;;;;5136884;27;20458;-80
2023/07/13 04:40:14;;;;;;;0.60;0.60;;;17.80;99.90;;;;;;5136465;27;20470;-80
2023/07/13 04:42:41;;;;;;;1.27;0.93;;;17.80;99.90;;;;;;5136767;27;20451;-80
2023/07/13 04:45:08;;;;;;;1.23;0.70;;;17.80;99.90;;;;;;5136401;27;20968;-80
2023/07/13 04:47:37;;;;;;;0.53;0.53;;;17.80;99.90;;;;;;5136668;27;20560;-80
2023/07/13 04:50:05;;;;;;;1.23;0.70;;;17.70;99.90;;;;;;5136563;27;20469;-80
2023/07/13 04:52:32;;;;;;;0.73;0.60;;;17.70;99.90;;;;;;5136459;27;20474;-80
2023/07/13 04:54:59;;;;;;;0.60;0.60;;;17.70;99.90;;;;;;5136388;27;20441;-80
2023/07/13 04:57:26;;;;;;;3.07;0.80;;;17.70;99.90;;;;;;5136546;27;20427;-80
2023/07/13 04:59:53;;;;;;;0.57;0.57;;;17.70;99.90;;;;;;5136100;27;20466;-80
2023/07/13 05:02:21;;;;;;;0.60;0.50;;;17.70;99.90;;;;;;5136385;27;20802;-80
2023/07/13 05:04:49;;;;;;;1.30;0.70;;;17.70;99.90;;;;;;5136346;27;20450;-80
2023/07/13 05:07:16;;;;;;;2.30;0.80;;;17.80;99.90;;;;;;5136301;27;20445;-80
2023/07/13 05:09:43;;;;;;;0.73;0.60;;;17.80;99.90;;;;;;5136267;27;20795;-80
2023/07/13 05:12:10;;;;;;;0.50;0.50;;;17.90;99.90;;;;;;5135875;27;20480;-80
2023/07/13 05:14:37;;;;;;;0.60;0.60;;;18.00;99.90;;;;;;5136445;27;20465;-80
2023/07/13 05:17:04;;;;;;;0.60;0.60;;;18.10;99.90;;;;;;5136130;27;20446;-80
2023/07/13 05:19:31;;;;;;;0.90;0.60;;;18.30;99.90;;;;;;5135984;27;20462;-80
2023/07/13 05:21:59;;;;;;;1.00;0.90;;;18.30;99.90;;;;;;5135973;27;20476;-80
2023/07/13 05:24:27;;;;;;;3.10;0.90;;;18.40;99.90;;;;;;5135633;27;20831;-80
2023/07/13 05:26:54;;;;;;;0.87;0.80;;;18.50;99.90;;;;;;5135888;27;20442;-80
2023/07/13 05:29:21;;;;;;;0.67;0.67;;;18.60;99.90;;;;;;5135473;27;21030;-80
2023/07/13 05:31:47;;;;;;;1.60;0.80;;;18.70;99.90;;;;;;5135763;27;20485;-80
2023/07/13 05:34:14;;;;;;;1.57;1.00;;;18.70;99.90;;;;;;5135500;27;20441;-80
2023/07/13 05:36:41;;;;;;;4.50;0.60;;;18.70;99.90;;;;;;5135763;27;20438;-80
2023/07/13 05:39:11;;;;;;;0.80;0.77;;;18.80;99.90;;;;;;5135212;27;20483;-80
2023/07/13 05:41:38;;;;;;;1.20;0.60;;;18.70;99.90;;;;;;5135921;27;20446;-80
2023/07/13 05:44:05;;;;;;;0.50;0.50;;;18.70;99.90;;;;;;5135296;27;20434;-80
2023/07/13 05:46:31;;;;;;;0.70;0.60;;;18.80;99.90;;;;;;5135526;27;20446;-80
2023/07/13 05:48:58;;;;;;;0.90;0.63;;;18.80;99.90;;;;;;5135410;27;20438;-80
2023/07/13 05:51:25;;;;;;;1.10;1.00;;;18.80;99.90;;;;;;5135390;27;20473;-80
2023/07/13 05:53:51;;;;;;;1.50;0.73;;;18.90;99.90;;;;;;5135086;27;20968;-80
2023/07/13 05:56:19;;;;;;;1.20;0.90;;;18.90;99.90;;;;;;5135096;27;20470;-81
2023/07/13 05:58:46;;;;;;;1.43;0.60;;;18.90;99.90;;;;;;5135292;27;20450;-81
2023/07/13 06:01:15;;;;;;;0.70;0.70;;;19.00;99.90;;;;;;5134420;27;20462;-81
2023/07/13 06:03:42;;;;;;;0.60;0.60;;;19.00;99.90;;;;;;5135200;27;20469;-81
2023/07/13 06:06:10;;;;;;;1.13;0.63;;;19.10;99.90;;;;;;5135116;27;20469;-81
2023/07/13 06:08:37;;;;;;;1.07;0.87;;;19.20;99.90;;;;;;5135141;27;20445;-81
2023/07/13 06:11:06;;;;;;;0.80;0.70;;;19.30;99.90;;;;;;5134674;27;20443;-81
2023/07/13 06:13:34;;;;;;;1.90;0.60;;;19.40;99.90;;;;;;5135036;27;20446;-80
2023/07/13 06:16:04;;;;;;;1.87;0.60;;;19.50;99.90;;;;;;5134704;27;20450;-80
2023/07/13 06:18:30;;;;;;;5.83;0.97;;;19.60;99.90;;;;;;5134934;27;20546;-80
2023/07/13 06:20:57;;;;;;;2.70;0.80;;;19.70;99.90;;;;;;5135074;27;20469;-80
2023/07/13 06:23:24;;;;;;;1.00;0.70;;;19.80;99.90;;;;;;5135072;27;20450;-81
2023/07/13 06:25:51;;;;;;;0.60;0.60;;;19.90;99.90;;;;;;5134838;27;20450;-80
2023/07/13 06:28:17;;;;;;;0.73;0.73;;;20.10;99.90;;;;;;5134765;27;20454;-80
2023/07/13 06:30:45;;;;;;;0.83;0.70;;;20.30;99.90;;;;;;5134396;27;20992;-80
2023/07/13 06:33:12;;;;;;;0.93;0.70;;;20.40;99.90;;;;;;5134347;27;20470;-80
2023/07/13 06:35:39;;;;;;;0.60;0.60;;;20.60;99.90;;;;;;5134646;27;20450;-80
2023/07/13 06:38:06;;;;;;;4.03;0.80;;;20.70;99.90;;;;;;5134974;27;20430;-80
2023/07/13 06:40:32;;;;;;;0.50;0.50;;;20.90;99.90;;;;;;5134299;27;20487;-80
2023/07/13 06:42:59;;;;;;;2.40;0.73;;;21.00;99.90;;;;;;5134849;27;20442;-80
2023/07/13 06:45:26;;;;;;;1.00;0.60;;;21.10;99.90;;;;;;5134473;27;20941;-81
2023/07/13 06:47:54;;;;;;;0.67;0.67;;;21.20;99.90;;;;;;5134129;27;20474;-81
2023/07/13 06:50:20;;;;;;;0.60;0.60;;;21.30;99.90;;;;;;5134587;27;20461;-81
2023/07/13 06:52:47;;;;;;;2.30;0.83;;;21.20;99.90;;;;;;5133829;27;20477;-81
2023/07/13 06:55:14;;;;;;;1.10;0.60;;;21.40;99.90;;;;;;5133975;27;20495;-81
2023/07/13 06:57:41;;;;;;;0.73;0.60;;;21.40;99.90;;;;;;5134404;27;20437;-81
2023/07/13 07:00:09;;;;;;;0.50;0.50;;;21.30;99.90;;;;;;5134297;27;20470;-81
2023/07/13 07:02:36;;;;;;;0.70;0.70;;;21.50;99.90;;;;;;5134597;28;20442;-81
2023/07/13 07:05:05;;;;;;;0.80;0.70;;;21.70;99.90;;;;;;5134339;28;20449;-81
2023/07/13 07:07:31;;;;;;;0.80;0.80;;;21.90;99.90;;;;;;5134084;28;20798;-81
2023/07/13 07:09:58;;;;;;;0.63;0.63;;;22.00;99.90;;;;;;5134450;28;20477;-81
2023/07/13 07:12:25;;;;;;;1.30;0.70;;;22.00;99.90;;;;;;5135348;27;20481;-81
2023/07/13 07:14:51;;;;;;;0.50;0.50;;;22.10;99.90;;;;;;5138519;27;20441;-81
2023/07/13 07:17:18;;;;;;;0.70;0.70;;;22.20;99.90;;;;;;5138149;27;20200;-81
2023/07/13 07:19:45;;;;;;;1.47;0.73;;;22.30;99.90;;;;;;5138373;27;20230;-81
2023/07/13 07:22:13;;;;;;;0.90;0.60;;;22.40;99.90;;;;;;5138644;27;20433;-81
2023/07/13 07:24:40;;;;;;;0.50;0.50;;;22.50;99.90;;;;;;5138294;27;20211;-81
2023/07/13 07:27:07;;;;;;;0.50;0.40;;;22.50;99.90;;;;;;5138333;27;20206;-81
2023/07/13 07:29:33;;;;;;;0.60;0.60;;;22.60;99.90;;;;;;5138095;27;20468;-81
2023/07/13 07:32:00;;;;;;;1.53;0.60;;;22.50;99.90;;;;;;5138108;27;20480;-81
2023/07/13 07:34:27;;;;;;;0.63;0.53;;;22.70;99.90;;;;;;5138109;27;20437;-81
2023/07/13 07:36:54;;;;;;;0.50;0.50;;;22.70;98.70;;;;;;5138089;27;20446;-81
2023/07/13 07:39:22;;;;;;;0.70;0.70;;;22.80;98.80;;;;;;5137981;27;20253;-81
2023/07/13 07:41:49;;;;;;;0.80;0.53;;;23.00;99.20;;;;;;5137716;27;20196;-80
2023/07/13 07:44:15;;;;;;;0.87;0.57;;;22.90;99.10;;;;;;5138830;27;20203;-81
2023/07/13 07:46:42;;;;;;;1.05;0.95;;;23.00;99.30;;;;;;5137600;27;20196;-81
2023/07/13 07:49:09;;;;;;;0.60;0.60;;;23.20;99.30;;;;;;5137497;27;20678;-81
2023/07/13 07:51:35;;;;;;;1.27;0.50;;;23.40;98.90;;;;;;5137650;27;20208;-81
2023/07/13 07:54:02;;;;;;;0.68;0.68;;;23.50;98.70;;;;;;5137770;27;20209;-81
2023/07/13 07:56:31;;;;;;;0.50;0.50;;;23.60;98.80;;;;;;5137316;27;20644;-81
2023/07/13 07:58:58;;;;;;;0.50;0.50;;;23.70;96.40;;;;;;5137399;27;20655;-81
2023/07/13 08:01:26;;;;;;;0.68;0.55;;;23.70;96.90;;;;;;5137823;27;20200;-81
2023/07/13 08:03:53;;;;;;;0.70;0.52;;;23.90;96.80;;;;;;5137564;27;20206;-81
2023/07/13 08:06:19;;;;;;;1.05;0.60;;;24.00;96.40;;;;;;5137417;27;20245;-81
2023/07/13 08:08:46;;;;;;;0.60;0.60;;;24.00;96.50;;;;;;5137521;27;20294;-81
2023/07/13 08:11:13;;;;;;;0.55;0.52;;;24.10;95.00;;;;;;5137053;27;20231;-81
2023/07/13 08:13:41;;;;;;;2.28;0.60;;;24.10;94.30;;;;;;5137017;27;20694;-81
2023/07/13 08:16:08;;;;;;;1.08;0.65;;;24.30;95.30;;;;;;5137023;27;20196;-81
2023/07/13 08:18:35;;;;;;;1.02;0.60;;;24.50;95.00;;;;;;5137265;27;20223;-81
2023/07/13 08:21:05;;;;;;;1.10;0.93;;;24.70;95.30;;;;;;5136898;27;20722;-81
2023/07/13 08:23:32;;;;;;;1.15;0.60;;;24.90;94.70;;;;;;5136621;27;20180;-81
2023/07/13 08:26:01;;;;;;;1.13;0.52;;;25.20;93.10;;;;;;5136889;27;20611;-81
2023/07/13 08:28:28;;;;;;;2.67;0.60;;;25.40;93.10;;;;;;5137950;27;20207;-81
2023/07/13 08:31:01;;;;;;;0.90;0.60;;;25.60;91.90;;;;;;5136758;27;20820;-81
2023/07/13 08:33:27;;;;;;;1.20;0.68;;;25.60;92.20;;;;;;5136731;27;20197;-81
2023/07/13 08:35:54;;;;;;;0.82;0.50;;;25.60;91.80;;;;;;5136984;27;20207;-81
2023/07/13 08:38:21;;;;;;;0.60;0.50;;;25.80;90.90;;;;;;5136585;27;20200;-82
2023/07/13 08:40:52;;;;;;;1.92;0.60;;;25.90;90.80;;;;;;5136829;27;20216;-81
2023/07/13 08:43:25;;;;;;;1.52;0.50;;;25.80;88.20;;;;;;5136598;27;20185;-81
2023/07/13 08:46:00;;;;;;;0.70;0.50;;;26.00;88.90;;;;;;5136819;27;20184;-81
2023/07/13 08:48:29;;;;;;;0.70;0.50;;;26.20;90.50;;;;;;5136577;27;20563;-81
2023/07/13 08:50:59;;;;;;;0.80;0.50;;;26.20;88.00;;;;;;5136623;27;20232;-81
2023/07/13 08:53:33;;;;;;;1.83;1.00;;;26.10;87.80;;;;;;5136783;27;20212;-81
2023/07/13 08:56:00;;;;;;;0.50;0.50;;;25.90;87.60;;;;;;5136262;27;20718;-81
2023/07/13 08:58:29;;;;;;;1.30;0.60;;;26.00;88.70;;;;;;5136606;27;20196;-81
2023/07/13 09:01:06;;;;;;;0.50;0.50;;;26.00;87.20;;;;;;5136417;27;20219;-81
2023/07/13 09:03:41;;;;;;;0.50;0.50;;;26.00;84.50;;;;;;5136861;27;20214;-81
2023/07/13 09:06:11;;;;;;;2.80;0.85;;;26.00;86.90;;;;;;5136413;27;20187;-81
2023/07/13 09:08:50;;;;;;;0.60;0.55;;;25.80;85.80;;;;;;5136799;27;20200;-81
2023/07/13 09:11:32;;;;;;;0.60;0.60;;;25.70;85.00;;;;;;5136302;27;20224;-81
2023/07/13 09:14:05;;;;;;;0.88;0.70;;;25.70;86.00;;;;;;5136701;27;20207;-81
2023/07/13 09:16:34;;;;;;;0.77;0.57;;;26.10;84.90;;;;;;5135934;27;20644;-82
2023/07/13 09:19:07;;;;;;;0.50;0.50;;;26.20;83.20;;;;;;5136036;27;20204;-81
2023/07/13 09:21:37;;;;;;;2.83;0.60;;;26.10;82.70;;;;;;5135839;27;20190;-82
2023/07/13 09:24:27;;;;;;;1.42;0.80;;;26.20;82.20;;;;;;5135672;27;20659;-82
2023/07/13 09:26:56;;;;;;;0.50;0.50;;;26.20;83.80;;;;;;5135668;27;20196;-82
2023/07/13 09:29:28;;;;;;;2.33;0.90;;;26.00;83.50;;;;;;5135502;27;20711;-81
2023/07/13 09:32:02;;;;;;;1.02;0.70;;;25.70;84.40;;;;;;5135920;27;20203;-81
2023/07/13 09:34:31;;;;;;;0.90;0.90;;;25.50;84.30;;;;;;5135817;27;20183;-81
2023/07/13 09:36:58;;;;;;;0.50;0.50;;;25.70;86.00;;;;;;5134449;27;20243;-81
2023/07/13 09:39:28;;;;;;;0.60;0.50;;;26.00;86.20;;;;;;5136330;27;20220;-81
2023/07/13 09:42:03;;;;;;;0.60;0.60;;;26.30;82.20;;;;;;5135726;27;20191;-81
2023/07/13 09:44:35;;;;;;;1.63;0.73;;;26.30;83.70;;;;;;5135651;27;20183;-81
2023/07/13 09:47:04;;;;;;;0.65;0.65;;;26.00;82.10;;;;;;5135618;27;20224;-81
2023/07/13 09:49:35;;;;;;;1.40;0.60;;;25.90;85.10;;;;;;5135104;27;20729;-81
2023/07/13 09:52:04;;;;;;;0.60;0.60;;;25.90;86.40;;;;;;5135568;27;20231;-81
2023/07/13 09:54:36;;;;;;;0.73;0.68;;;25.90;84.70;;;;;;5135442;27;20184;-81
2023/07/13 09:57:05;;;;;;;0.68;0.60;;;25.60;84.70;;;;;;5135060;27;20288;-81
2023/07/13 09:59:34;;;;;;;2.00;0.60;;;25.40;85.60;;;;;;5135284;27;20273;-80
2023/07/13 10:02:02;;;;;;;0.65;0.60;;;25.20;86.50;;;;;;5134987;27;20750;-81
2023/07/13 10:04:33;;;;;;;1.67;0.70;;;25.10;86.50;;;;;;5135206;27;20241;-81
2023/07/13 10:07:07;;;;;;;0.60;0.60;;;24.80;85.50;;;;;;5135240;27;20227;-80
2023/07/13 10:09:34;;;;;;;1.52;0.68;;;24.80;86.40;;;;;;5134785;27;20792;-81
2023/07/13 10:12:01;;;;;;;0.75;0.75;;;24.90;85.70;;;;;;5135093;27;20211;-81
2023/07/13 10:14:30;;;;;;;1.05;0.60;;;25.00;86.30;;;;;;5134960;27;20310;-81
2023/07/13 10:17:02;;;;;;;0.90;0.70;;;25.20;86.40;;;;;;5135015;27;20203;-81
2023/07/13 10:19:35;;;;;;;0.50;0.50;;;25.30;84.30;;;;;;5134949;27;20635;-81
2023/07/13 10:22:11;;;;;;;2.45;0.85;;;25.50;83.80;;;;;;5134944;27;20189;-81
2023/07/13 10:24:39;;;;;;;1.85;0.60;;;25.60;83.30;;;;;;5135213;27;20183;-81
2023/07/13 10:27:17;;;;;;;1.10;0.90;;;25.60;82.80;;;;;;5134515;27;20196;-81
2023/07/13 10:29:49;;;;;;;0.70;0.70;;;25.80;83.40;;;;;;5134746;27;20226;-81
2023/07/13 10:32:16;;;;;;;0.60;0.60;;;25.80;82.70;;;;;;5134670;27;20191;-81
2023/07/13 10:34:47;;;;;;;0.60;0.60;;;25.80;84.60;;;;;;5134371;27;20204;-81
2023/07/13 10:37:27;;;;;;;0.50;0.50;;;25.90;85.00;;;;;;5134698;27;20235;-81
2023/07/13 10:39:56;;;;;;;1.30;0.60;;;26.00;81.50;;;;;;5134605;27;20224;-81
2023/07/13 10:42:30;;;;;;;3.38;0.57;;;26.00;81.90;;;;;;5134573;27;20203;-81
2023/07/13 10:44:56;;;;;;;0.52;0.52;;;26.00;82.40;;;;;;5134844;27;20191;-80
2023/07/13 10:47:25;;;;;;;0.70;0.70;;;26.10;81.30;;;;;;5134385;27;20196;-81
2023/07/13 10:49:57;;;;;;;0.80;0.70;;;26.10;80.60;;;;;;5134394;27;20237;-81
2023/07/13 10:52:46;;;;;;;0.73;0.60;;;26.10;78.30;;;;;;5134447;27;20214;-81
2023/07/13 10:55:37;;;;;;;2.40;0.68;;;26.10;80.10;;;;;;5133921;27;20564;-81
2023/07/13 10:58:15;;;;;;;1.00;0.57;;;26.50;81.80;;;;;;5125340;27;20206;-81
2023/07/13 11:00:49;;;;;;;3.15;0.60;;;26.70;77.10;;;;;;5134372;27;20231;-81
2023/07/13 11:03:19;;;;;;;0.70;0.60;;;26.70;75.70;;;;;;5134349;28;20179;-80
2023/07/13 11:05:51;;;;;;;0.50;0.50;;;26.70;76.40;;;;;;5134328;28;20222;-81
2023/07/13 11:08:22;;;;;;;0.77;0.52;;;26.70;74.70;;;;;;5134100;28;20632;-81
2023/07/13 11:10:52;;;;;;;1.85;1.40;;;26.40;75.40;;;;;;5134227;28;20227;-81
2023/07/13 11:13:54;;;;;;;0.50;0.50;;;26.10;79.70;;;;;;5133914;28;20261;-80
2023/07/13 11:16:42;;;;;;;0.93;0.93;;;25.80;78.00;;;;;;5134025;28;20207;-81
2023/07/13 11:19:42;;;;;;;0.52;0.50;;;25.60;76.20;;;;;;5133828;28;20644;-80
2023/07/13 11:22:17;;;;;;;0.65;0.65;;;25.40;77.10;;;;;;5050773;28;20187;-80
2023/07/13 11:25:22;;;;;;;0.60;0.60;;;25.50;77.30;;;;;;5051124;28;20202;-80
2023/07/13 11:27:52;;;;;;;0.60;0.50;;;25.60;77.80;;;;;;5114237;28;20204;-80
2023/07/13 11:30:32;;;;;;;0.60;0.60;;;25.60;79.00;;;;;;5134068;28;20220;-81
2023/07/13 11:33:15;;;;;;;2.53;0.65;;;25.60;78.00;;;;;;5133766;28;20204;-81
2023/07/13 11:35:58;;;;;;;0.82;0.75;;;25.50;81.30;;;;;;5133829;28;20199;-81
2023/07/13 11:38:34;;;;;;;0.57;0.57;;;25.40;81.00;;;;;;5134084;28;20195;-81
2023/07/13 11:41:05;;;;;;;0.70;0.60;;;25.50;78.90;;;;;;5133970;28;20215;-81
2023/07/13 11:43:33;;;;;;;0.50;0.50;;;25.60;77.90;;;;;;5133981;28;20184;-81
2023/07/13 11:46:13;;;;;;;1.90;0.52;;;25.70;76.10;;;;;;5133648;28;20231;-81
2023/07/13 11:48:41;;;;;;;0.98;0.88;;;25.70;76.00;;;;;;5133934;28;20184;-81
2023/07/13 11:51:16;;;;;;;0.63;0.63;;;25.60;76.20;;;;;;5133883;28;20259;-81
2023/07/13 11:53:46;;;;;;;0.80;0.80;;;25.50;75.70;;;;;;5133842;28;20203;-80
2023/07/13 11:56:14;;;;;;;0.50;0.50;;;25.50;77.30;;;;;;5133571;28;20231;-80
2023/07/13 11:58:42;;;;;;;0.50;0.50;;;25.30;77.60;;;;;;5133853;27;20286;-80
2023/07/13 12:01:19;;;;;;;0.80;0.50;;;25.40;77.80;;;;;;5137586;27;20695;-80
2023/07/13 12:03:47;;;;;;;0.70;0.70;;;25.60;72.30;;;;;;5137321;27;20180;-81
2023/07/13 12:06:27;;;;;;;0.60;0.60;;;25.70;74.70;;;;;;5137548;27;20260;-81
2023/07/13 12:08:57;;;;;;;0.50;0.50;;;26.00;73.00;;;;;;5137336;27;20194;-81
2023/07/13 12:11:24;;;;;;;0.82;0.57;;;26.10;71.90;;;;;;5137489;27;20204;-81
2023/07/13 12:13:51;;;;;;;0.60;0.60;;;26.20;70.60;;;;;;5137398;27;20243;-81
2023/07/13 12:16:26;;;;;;;0.70;0.70;;;26.00;74.70;;;;;;5137399;27;20200;-81
2023/07/13 12:18:55;;;;;;;0.70;0.65;;;26.10;74.30;;;;;;5137327;27;20241;-80
2023/07/13 12:21:26;;;;;;;0.60;0.60;;;26.30;76.10;;;;;;5137057;27;20678;-81
2023/07/13 12:23:55;;;;;;;2.15;0.80;;;26.30;74.80;;;;;;5137235;27;20183;-81
2023/07/13 12:26:22;;;;;;;1.00;1.00;;;26.30;73.70;;;;;;5137473;27;20200;-81
2023/07/13 12:28:52;;;;;;;1.63;0.70;;;26.30;73.80;;;;;;5137040;27;20200;-80
2023/07/13 12:31:35;;;;;;;0.70;0.60;;;26.30;74.10;;;;;;5137308;27;20224;-79
2023/07/13 12:34:06;;;;;;;0.65;0.65;;;26.30;75.70;;;;;;5136953;27;20208;-80
2023/07/13 12:36:37;;;;;;;0.80;0.77;;;26.20;74.90;;;;;;5137284;27;20373;-80
2023/07/13 12:39:15;;;;;;;0.68;0.68;;;26.20;73.70;;;;;;5136875;27;20662;-80
2023/07/13 12:41:44;;;;;;;0.60;0.60;;;26.10;73.00;;;;;;5136616;27;20635;-80
2023/07/13 12:44:13;;;;;;;1.20;0.70;;;26.10;74.20;;;;;;5136871;27;20226;-80
2023/07/13 12:46:40;;;;;;;0.73;0.60;;;26.10;74.00;;;;;;5136772;27;20552;-80
2023/07/13 12:49:08;;;;;;;0.60;0.60;;;26.00;74.70;;;;;;5136610;27;20207;-80
2023/07/13 12:51:35;;;;;;;0.70;0.70;;;26.10;75.20;;;;;;5136356;27;20663;-80
2023/07/13 12:54:16;;;;;;;0.70;0.70;;;26.10;74.10;;;;;;5136556;27;20725;-80
2023/07/13 12:56:43;;;;;;;0.75;0.70;;;26.10;74.80;;;;;;5136186;27;20258;-80
2023/07/13 12:59:17;;;;;;;0.50;0.50;;;26.00;75.30;;;;;;5136168;27;20675;-80